Time;durP1;ratioP1;P1;durP2;ratioP2;P2;SDS_P1;SDS_P2;PMS_P1;PMS_P2;Temp;Humidity;BMP_temperature;BMP_pressure;BME280_temperature;BME280_humidity;BME280_pressure;Samples;Min_cycle;Max_cycle;Signal;HPM_P1;HPM_P2
2022/05/29 00:00:17;;;;;;;16.27;4.93;;;8.90;99.90;;;;;;5067713;28;20113;-48
2022/05/29 00:02:42;;;;;;;17.10;4.63;;;8.90;99.90;;;;;;5069832;28;20032;-54
2022/05/29 00:05:11;;;;;;;10.10;4.57;;;8.90;99.90;;;;;;5066233;28;20086;-47
2022/05/29 00:07:37;;;;;;;11.65;4.50;;;8.90;99.90;;;;;;5072262;28;20600;-48
2022/05/29 00:10:07;;;;;;;9.68;3.70;;;8.90;99.90;;;;;;5066150;28;20394;-48
2022/05/29 00:12:33;;;;;;;13.07;5.30;;;8.90;99.90;;;;;;5071463;28;20021;-48
2022/05/29 00:14:58;;;;;;;12.60;4.53;;;8.90;99.90;;;;;;5065342;28;20028;-47
2022/05/29 00:17:24;;;;;;;14.27;4.20;;;8.90;99.90;;;;;;5041587;28;20024;-49
2022/05/29 00:19:50;;;;;;;9.15;4.55;;;8.90;99.90;;;;;;5047184;28;20115;-51
2022/05/29 00:22:20;;;;;;;9.27;4.35;;;8.90;99.90;;;;;;5067572;28;20445;-47
2022/05/29 00:24:48;;;;;;;11.68;4.28;;;8.90;99.90;;;;;;5071475;28;20482;-48
2022/05/29 00:27:16;;;;;;;14.05;4.70;;;8.80;99.90;;;;;;5047508;28;20455;-50
2022/05/29 00:29:42;;;;;;;16.42;4.43;;;8.80;99.90;;;;;;5071163;28;20024;-49
2022/05/29 00:32:08;;;;;;;7.78;3.53;;;8.80;99.90;;;;;;5045489;28;20418;-49
2022/05/29 00:34:34;;;;;;;12.85;5.43;;;8.80;99.90;;;;;;5053134;28;20025;-48
2022/05/29 00:37:00;;;;;;;14.50;4.95;;;8.80;99.90;;;;;;5046116;28;20028;-49
2022/05/29 00:39:28;;;;;;;10.63;4.70;;;8.80;99.90;;;;;;5050841;28;20097;-48
2022/05/29 00:41:54;;;;;;;11.50;3.63;;;8.80;99.90;;;;;;5052249;28;20016;-49
2022/05/29 00:44:21;;;;;;;7.57;4.63;;;8.80;99.90;;;;;;5047205;28;20017;-48
2022/05/29 00:46:50;;;;;;;10.23;4.47;;;8.80;99.90;;;;;;5052724;28;20021;-47
2022/05/29 00:49:18;;;;;;;15.07;4.40;;;8.80;99.90;;;;;;5041173;28;20032;-49
2022/05/29 00:51:49;;;;;;;10.48;4.68;;;8.80;99.90;;;;;;5070426;28;20024;-47
2022/05/29 00:54:16;;;;;;;10.50;4.93;;;8.80;99.90;;;;;;5044426;28;20506;-46
2022/05/29 00:56:42;;;;;;;20.08;6.50;;;8.80;99.90;;;;;;5069740;28;20104;-46
2022/05/29 00:59:15;;;;;;;16.73;5.70;;;8.80;99.90;;;;;;5066125;28;20029;-47
2022/05/29 01:01:42;;;;;;;13.02;4.63;;;8.80;99.90;;;;;;5066031;28;20017;-49
2022/05/29 01:04:09;;;;;;;11.45;4.65;;;8.80;99.90;;;;;;5063740;28;20033;-47
2022/05/29 01:06:35;;;;;;;10.85;4.07;;;8.80;99.90;;;;;;5051877;28;20056;-46
2022/05/29 01:09:02;;;;;;;11.90;5.10;;;8.80;99.90;;;;;;5045057;28;20059;-49
2022/05/29 01:11:43;;;;;;;13.77;4.90;;;8.80;99.90;;;;;;5068326;28;20024;-46
2022/05/29 01:14:26;;;;;;;13.05;4.97;;;8.80;99.90;;;;;;5064174;28;20128;-48
2022/05/29 01:17:16;;;;;;;11.00;4.60;;;8.80;99.90;;;;;;5068022;28;20115;-49
2022/05/29 01:19:59;;;;;;;15.38;5.55;;;8.80;99.90;;;;;;5064478;28;20021;-46
2022/05/29 01:23:00;;;;;;;12.45;5.60;;;8.80;99.90;;;;;;5066711;28;20024;-47
2022/05/29 01:25:41;;;;;;;13.25;4.93;;;8.80;99.90;;;;;;5056685;28;20033;-47
2022/05/29 01:28:12;;;;;;;13.88;5.35;;;8.80;99.90;;;;;;5068376;28;20029;-46
2022/05/29 01:30:47;;;;;;;12.45;6.00;;;8.80;99.90;;;;;;5065261;28;20099;-46
2022/05/29 01:33:24;;;;;;;12.13;4.05;;;8.80;99.90;;;;;;5067489;28;20386;-48
2022/05/29 01:35:56;;;;;;;;;;;8.80;99.90;;;;;;5064889;28;20108;-48
2022/05/29 01:38:38;;;;;;;10.07;4.20;;;8.80;99.90;;;;;;5066466;28;19922;-47
2022/05/29 01:41:12;;;;;;;10.60;4.45;;;8.80;99.90;;;;;;5069069;28;20058;-48
2022/05/29 01:43:44;;;;;;;15.98;4.32;;;8.80;99.90;;;;;;5065797;28;20031;-47
2022/05/29 01:46:26;;;;;;;8.40;4.32;;;8.80;99.90;;;;;;5068038;28;20401;-47
2022/05/29 01:48:58;;;;;;;12.38;4.57;;;8.80;99.90;;;;;;5064505;28;20028;-45
2022/05/29 01:51:31;;;;;;;12.57;4.50;;;8.80;99.90;;;;;;5068197;28;20015;-49
2022/05/29 01:54:19;;;;;;;9.15;4.53;;;8.80;99.90;;;;;;5044929;28;20047;-48
2022/05/29 01:56:50;;;;;;;18.15;4.90;;;8.80;99.90;;;;;;5060992;28;20024;-46
2022/05/29 01:59:23;;;;;;;9.05;4.75;;;8.80;99.90;;;;;;5066309;28;20028;-46
2022/05/29 02:01:55;;;;;;;10.10;4.93;;;8.80;99.90;;;;;;5043124;28;20024;-47
2022/05/29 02:04:25;;;;;;;15.27;5.95;;;8.80;99.90;;;;;;5046431;28;20028;-46
2022/05/29 02:09:48;;;;;;;12.20;4.38;;;8.80;99.90;;;;;;5066004;28;20139;-46
2022/05/29 02:12:18;;;;;;;19.25;6.35;;;8.90;99.90;;;;;;5066080;28;20553;-47
2022/05/29 02:14:55;;;;;;;12.85;4.53;;;8.80;99.90;;;;;;5046902;28;20035;-48
2022/05/29 02:17:32;;;;;;;7.78;4.68;;;8.80;99.90;;;;;;5048736;28;20031;-48
2022/05/29 02:20:08;;;;;;;14.52;4.97;;;8.80;99.90;;;;;;5061860;28;20049;-48
2022/05/29 02:22:35;;;;;;;10.98;4.10;;;8.80;99.90;;;;;;5048286;28;20059;-46
2022/05/29 02:25:09;;;;;;;13.75;4.85;;;8.80;99.90;;;;;;5066826;28;20028;-48
2022/05/29 02:27:46;;;;;;;13.40;4.68;;;8.80;99.90;;;;;;5065898;28;20009;-49
2022/05/29 02:30:14;;;;;;;12.75;4.57;;;8.80;99.90;;;;;;5064846;28;20028;-47
2022/05/29 02:33:02;;;;;;;12.25;4.93;;;8.80;99.90;;;;;;5063393;28;20099;-47
2022/05/29 02:36:19;;;;;;;12.82;5.07;;;8.80;99.90;;;;;;5056974;28;20478;-49
2022/05/29 02:39:06;;;;;;;11.23;4.38;;;8.80;99.90;;;;;;4972262;28;20050;-49
2022/05/29 02:42:01;;;;;;;8.80;4.75;;;8.80;99.90;;;;;;4968007;28;20115;-47
2022/05/29 02:44:34;;;;;;;10.77;5.03;;;8.80;99.90;;;;;;5051431;28;20033;-47
2022/05/29 02:47:19;;;;;;;11.30;3.55;;;8.80;99.90;;;;;;5068872;28;20115;-50
2022/05/29 02:49:57;;;;;;;8.80;4.00;;;8.80;99.90;;;;;;5065408;28;20056;-48
2022/05/29 02:52:23;;;;;;;8.77;3.80;;;8.80;99.90;;;;;;5029723;28;20103;-49
2022/05/29 02:54:48;;;;;;;9.73;4.72;;;8.80;99.90;;;;;;5043408;28;20108;-48
2022/05/29 02:57:15;;;;;;;16.90;4.88;;;8.80;99.90;;;;;;5053090;28;20048;-49
2022/05/29 02:59:47;;;;;;;8.25;3.20;;;8.80;99.90;;;;;;5062832;28;20032;-47
2022/05/29 03:02:31;;;;;;;11.88;4.25;;;8.80;99.90;;;;;;5064382;28;20024;-46
2022/05/29 03:05:23;;;;;;;16.20;4.68;;;8.80;99.90;;;;;;5059477;28;20497;-49
2022/05/29 03:07:58;;;;;;;14.75;4.00;;;8.80;99.90;;;;;;5064649;28;20033;-47
2022/05/29 03:10:32;;;;;;;11.25;3.97;;;8.80;99.90;;;;;;5058981;28;20107;-49
2022/05/29 03:13:14;;;;;;;7.20;4.32;;;8.80;99.90;;;;;;5064184;28;20020;-46
2022/05/29 03:15:59;;;;;;;13.52;4.97;;;8.80;99.90;;;;;;5070426;28;20031;-47
2022/05/29 03:19:15;;;;;;;9.32;3.63;;;8.80;99.90;;;;;;5059328;28;20032;-48
2022/05/29 03:21:47;;;;;;;7.05;3.50;;;8.80;99.90;;;;;;4945280;28;20034;-46
2022/05/29 03:24:36;;;;;;;11.07;3.65;;;8.80;99.90;;;;;;5062693;28;20033;-46
2022/05/29 03:27:26;;;;;;;7.05;3.50;;;8.80;99.90;;;;;;5067216;28;20083;-48
2022/05/29 03:30:05;;;;;;;11.35;3.97;;;8.80;99.90;;;;;;5064429;28;20078;-47
2022/05/29 03:32:33;;;;;;;11.73;3.63;;;8.80;99.90;;;;;;5068890;28;20334;-46
2022/05/29 03:34:58;;;;;;;9.90;3.60;;;8.80;99.90;;;;;;5071397;28;20634;-46
2022/05/29 03:37:24;;;;;;;8.68;3.75;;;8.80;99.90;;;;;;5049909;28;20073;-48
2022/05/29 03:39:49;;;;;;;12.45;3.92;;;8.80;99.90;;;;;;5052296;28;20035;-46
2022/05/29 03:42:16;;;;;;;11.35;3.60;;;8.90;99.90;;;;;;5066831;28;20016;-46
2022/05/29 03:44:42;;;;;;;9.40;3.50;;;8.90;99.90;;;;;;5051456;28;20355;-46
2022/05/29 03:47:07;;;;;;;8.52;3.50;;;8.90;99.90;;;;;;5071987;28;20020;-46
2022/05/29 03:49:33;;;;;;;14.88;3.78;;;8.90;99.90;;;;;;5068891;28;20045;-46
2022/05/29 03:51:59;;;;;;;9.95;3.90;;;8.90;99.90;;;;;;5070526;28;20029;-47
2022/05/29 03:54:24;;;;;;;12.85;4.00;;;8.90;99.90;;;;;;5067893;28;20013;-50
2022/05/29 03:56:50;;;;;;;10.60;3.90;;;8.90;99.90;;;;;;5052178;28;20043;-48
2022/05/29 03:59:15;;;;;;;8.02;3.78;;;8.90;99.90;;;;;;5066846;28;20486;-49
2022/05/29 04:01:41;;;;;;;13.38;4.35;;;8.90;99.90;;;;;;5050935;28;20019;-46
2022/05/29 04:04:08;;;;;;;7.53;4.18;;;9.00;99.90;;;;;;5070057;28;20029;-46
2022/05/29 04:06:40;;;;;;;5.78;2.92;;;9.00;99.90;;;;;;5067195;28;20093;-47
2022/05/29 04:12:07;;;;;;;7.43;3.63;;;9.00;99.90;;;;;;5065951;28;20032;-46
2022/05/29 04:14:39;;;;;;;13.93;3.90;;;9.00;99.90;;;;;;5070679;28;20032;-47
2022/05/29 04:17:05;;;;;;;9.00;3.85;;;9.10;99.90;;;;;;5069332;28;20013;-46
2022/05/29 04:19:31;;;;;;;11.32;4.80;;;9.10;99.90;;;;;;5068657;28;20617;-47
2022/05/29 04:21:57;;;;;;;11.10;3.80;;;9.10;99.90;;;;;;5052394;28;20032;-47
2022/05/29 04:24:23;;;;;;;7.45;3.80;;;9.20;99.90;;;;;;5048080;28;20028;-48
2022/05/29 04:26:49;;;;;;;12.38;3.58;;;9.10;99.90;;;;;;5071070;28;20025;-47
2022/05/29 04:29:16;;;;;;;10.93;3.45;;;9.20;99.90;;;;;;5062821;28;20025;-49
2022/05/29 04:34:27;;;;;;;11.38;3.97;;;9.20;99.90;;;;;;5058647;28;20226;-46
2022/05/29 04:36:53;;;;;;;6.80;3.30;;;9.20;99.90;;;;;;5051828;28;20025;-48
2022/05/29 04:39:18;;;;;;;8.20;3.95;;;9.30;99.90;;;;;;5066737;28;20019;-48
2022/05/29 04:41:44;;;;;;;11.27;3.90;;;9.30;99.90;;;;;;5068164;28;20100;-47
2022/05/29 04:44:09;;;;;;;9.95;4.47;;;9.30;99.90;;;;;;5067906;28;20083;-47
2022/05/29 04:46:35;;;;;;;10.60;3.42;;;9.40;99.90;;;;;;5065057;28;20029;-47
2022/05/29 04:49:00;;;;;;;11.48;4.70;;;9.40;99.90;;;;;;5069860;28;20031;-47
2022/05/29 04:51:26;;;;;;;11.65;4.30;;;9.40;99.90;;;;;;5066479;28;20391;-47
2022/05/29 04:53:51;;;;;;;12.95;4.40;;;9.50;99.90;;;;;;5069485;28;20109;-48
2022/05/29 04:56:17;;;;;;;11.98;4.20;;;9.50;99.90;;;;;;5070835;28;20383;-50
2022/05/29 04:58:43;;;;;;;11.48;3.50;;;9.50;99.90;;;;;;5068528;28;20083;-50
2022/05/29 05:01:10;;;;;;;9.77;3.50;;;9.60;99.90;;;;;;5068017;28;20067;-51
2022/05/29 05:03:36;;;;;;;15.27;4.45;;;9.60;99.90;;;;;;5065029;28;20112;-49
2022/05/29 05:06:01;;;;;;;11.00;4.10;;;9.60;99.90;;;;;;5064620;28;20103;-52
2022/05/29 05:08:28;;;;;;;9.70;4.40;;;9.60;99.90;;;;;;5050884;28;20089;-46
2022/05/29 05:10:54;;;;;;;13.23;3.38;;;9.60;99.90;;;;;;5064966;28;20016;-48
2022/05/29 05:13:20;;;;;;;14.80;3.72;;;9.70;99.90;;;;;;5067947;28;20482;-50
2022/05/29 05:15:45;;;;;;;11.98;4.03;;;9.80;99.90;;;;;;5069975;28;20020;-47
2022/05/29 05:18:11;;;;;;;12.63;4.68;;;9.90;99.90;;;;;;5048871;28;20035;-46
2022/05/29 05:20:38;;;;;;;15.82;4.55;;;9.90;99.90;;;;;;5050524;28;20506;-46
2022/05/29 05:23:04;;;;;;;11.93;3.55;;;9.90;99.90;;;;;;5047437;28;20021;-48
2022/05/29 05:25:29;;;;;;;15.48;5.70;;;10.00;99.90;;;;;;5067943;28;20154;-46
2022/05/29 05:27:55;;;;;;;14.43;3.47;;;10.10;99.90;;;;;;5064621;28;20044;-48
2022/05/29 05:30:21;;;;;;;15.40;5.30;;;10.10;99.90;;;;;;5066835;28;20023;-47
2022/05/29 05:32:46;;;;;;;12.55;3.97;;;10.20;99.90;;;;;;5051265;28;20028;-47
2022/05/29 05:35:12;;;;;;;13.35;4.05;;;10.30;99.90;;;;;;5066313;28;20053;-48
2022/05/29 05:37:39;;;;;;;14.02;3.70;;;10.40;99.90;;;;;;5050751;28;20507;-47
2022/05/29 05:40:09;;;;;;;10.23;3.30;;;10.40;99.90;;;;;;5062882;28;20125;-49
2022/05/29 05:42:34;;;;;;;11.05;4.07;;;10.50;99.90;;;;;;5067537;28;20024;-46
2022/05/29 05:45:00;;;;;;;12.38;4.43;;;10.60;99.90;;;;;;5064496;28;20031;-47
2022/05/29 05:47:25;;;;;;;12.80;4.35;;;10.50;99.90;;;;;;5067147;28;20024;-47
2022/05/29 05:49:52;;;;;;;13.02;4.25;;;10.60;99.90;;;;;;5069442;28;20025;-48
2022/05/29 05:52:19;;;;;;;11.52;3.63;;;10.60;99.90;;;;;;5066350;28;20024;-47
2022/05/29 05:54:45;;;;;;;11.13;3.95;;;10.60;99.90;;;;;;5050511;28;20024;-49
2022/05/29 05:57:11;;;;;;;11.38;3.72;;;10.60;99.90;;;;;;5064786;28;20372;-47
2022/05/29 05:59:39;;;;;;;8.90;3.92;;;10.70;99.90;;;;;;5067355;28;20020;-47
2022/05/29 06:02:07;;;;;;;6.97;3.22;;;10.80;99.90;;;;;;5063606;28;20099;-46
2022/05/29 06:04:32;;;;;;;12.98;4.03;;;10.90;99.90;;;;;;5065257;28;20024;-47
2022/05/29 06:06:58;;;;;;;8.90;3.30;;;11.10;99.90;;;;;;5063903;28;20115;-46
2022/05/29 06:09:24;;;;;;;8.05;2.97;;;11.10;99.90;;;;;;5050825;28;20069;-46
2022/05/29 06:11:50;;;;;;;7.25;3.30;;;11.20;99.90;;;;;;5063585;28;20017;-47
2022/05/29 06:14:15;;;;;;;10.65;3.97;;;11.10;99.90;;;;;;5048569;28;20073;-50
2022/05/29 06:16:41;;;;;;;11.05;3.58;;;11.10;99.90;;;;;;5069298;28;20039;-47
2022/05/29 06:19:07;;;;;;;7.88;2.67;;;11.10;99.90;;;;;;5064054;28;20039;-46
2022/05/29 06:21:33;;;;;;;7.78;3.45;;;11.00;99.90;;;;;;5068811;28;20024;-50
2022/05/29 06:23:59;;;;;;;9.55;3.03;;;11.00;99.90;;;;;;5045630;28;20265;-49
2022/05/29 06:26:24;;;;;;;4.88;3.13;;;11.00;99.90;;;;;;5069167;28;20067;-47
2022/05/29 06:28:50;;;;;;;7.03;3.15;;;11.00;99.90;;;;;;5064137;28;20027;-47
2022/05/29 06:31:16;;;;;;;15.40;4.15;;;11.00;99.90;;;;;;5066069;28;20410;-47
2022/05/29 06:33:41;;;;;;;8.60;3.08;;;11.00;99.90;;;;;;5049209;28;20070;-46
2022/05/29 06:36:12;;;;;;;8.85;3.03;;;11.00;99.90;;;;;;5045870;28;20039;-49
2022/05/29 06:38:39;;;;;;;6.80;3.10;;;10.90;99.90;;;;;;5051010;28;20020;-49
2022/05/29 06:41:09;;;;;;;5.20;2.33;;;11.00;99.90;;;;;;5044573;28;20032;-48
2022/05/29 06:43:36;;;;;;;10.80;3.47;;;11.00;99.90;;;;;;5053126;28;20039;-47
2022/05/29 06:46:03;;;;;;;11.43;3.03;;;11.10;99.90;;;;;;5047824;28;20063;-48
2022/05/29 06:48:29;;;;;;;9.27;3.30;;;11.10;99.90;;;;;;5053629;28;20025;-50
2022/05/29 06:50:55;;;;;;;7.57;3.65;;;11.20;99.90;;;;;;5071925;28;20031;-49
2022/05/29 06:53:21;;;;;;;7.57;2.95;;;11.20;99.90;;;;;;5050816;28;20012;-46
2022/05/29 06:55:54;;;;;;;9.55;2.40;;;11.30;99.90;;;;;;5073813;28;20031;-48
2022/05/29 06:58:20;;;;;;;12.00;3.25;;;11.30;99.90;;;;;;5063283;28;20035;-47
2022/05/29 07:08:59;;;;;;;6.85;3.05;;;11.70;99.90;;;;;;5071082;28;20071;-50
2022/05/29 07:11:27;;;;;;;11.20;3.30;;;11.90;99.90;;;;;;5066892;28;20044;-49
2022/05/29 07:13:54;;;;;;;11.27;3.53;;;12.00;99.90;;;;;;5051293;28;20028;-46
2022/05/29 07:16:20;;;;;;;10.10;3.08;;;12.10;99.90;;;;;;5072558;28;20154;-48
2022/05/29 07:18:50;;;;;;;10.52;3.13;;;12.20;99.90;;;;;;5068923;28;20078;-48
2022/05/29 07:21:16;;;;;;;8.82;3.15;;;12.30;99.90;;;;;;5069484;28;20052;-48
2022/05/29 07:23:41;;;;;;;11.15;2.92;;;12.30;99.90;;;;;;5049946;28;20059;-48
2022/05/29 07:26:07;;;;;;;8.95;3.63;;;12.20;99.90;;;;;;5052235;28;20032;-46
2022/05/29 07:28:33;;;;;;;9.90;3.78;;;12.30;99.90;;;;;;5067037;28;20146;-48
2022/05/29 07:30:59;;;;;;;10.77;3.88;;;12.20;99.90;;;;;;5050875;28;20024;-50
2022/05/29 07:33:25;;;;;;;8.27;3.28;;;12.20;99.90;;;;;;5072253;28;20386;-48
2022/05/29 07:35:51;;;;;;;12.38;4.30;;;12.30;99.90;;;;;;5068448;28;20111;-50
2022/05/29 07:38:18;;;;;;;10.02;3.45;;;12.30;99.90;;;;;;5071593;28;20048;-51
2022/05/29 07:40:43;;;;;;;8.73;3.17;;;12.30;99.90;;;;;;5050053;28;20033;-47
2022/05/29 07:43:22;;;;;;;11.02;3.95;;;12.30;99.90;;;;;;5069999;28;20094;-50
2022/05/29 07:45:56;;;;;;;15.43;3.63;;;12.30;99.90;;;;;;5067321;28;20020;-47
2022/05/29 07:48:25;;;;;;;7.47;3.72;;;12.40;99.90;;;;;;5050404;28;20024;-48
2022/05/29 07:50:51;;;;;;;9.25;3.45;;;12.40;99.90;;;;;;5053935;28;20052;-49
2022/05/29 07:53:18;;;;;;;6.47;4.60;;;12.50;99.90;;;;;;5067002;28;20021;-47
2022/05/29 07:55:44;;;;;;;14.95;4.43;;;12.50;99.90;;;;;;5072003;28;20132;-46
2022/05/29 07:58:12;;;;;;;9.82;4.47;;;12.70;99.90;;;;;;5046961;28;20132;-47
2022/05/29 08:00:38;;;;;;;13.82;4.63;;;12.80;99.90;;;;;;5072045;28;20043;-49
2022/05/29 08:03:04;;;;;;;14.50;4.30;;;12.90;99.90;;;;;;5064275;28;20078;-47
2022/05/29 08:05:34;;;;;;;13.32;4.35;;;13.00;99.90;;;;;;5047185;28;20021;-46
2022/05/29 08:08:04;;;;;;;12.35;4.28;;;13.00;99.90;;;;;;5069632;28;20025;-47
2022/05/29 08:10:30;;;;;;;12.57;4.22;;;13.00;99.90;;;;;;5048311;28;20028;-49
2022/05/29 08:12:56;;;;;;;8.15;3.63;;;12.90;99.90;;;;;;5066333;28;20390;-47
2022/05/29 08:15:21;;;;;;;10.77;3.90;;;12.80;99.90;;;;;;5071318;28;20032;-47
2022/05/29 08:17:47;;;;;;;16.77;4.70;;;12.80;99.90;;;;;;5067875;28;20098;-47
2022/05/29 08:20:15;;;;;;;11.93;4.05;;;12.80;99.90;;;;;;5069861;28;20445;-47
2022/05/29 08:22:40;;;;;;;11.73;3.72;;;12.70;99.90;;;;;;5066850;28;20104;-50
2022/05/29 08:30:41;;;;;;;12.85;5.03;;;12.70;99.90;;;;;;5068489;28;20055;-51
2022/05/29 08:33:17;;;;;;;10.10;4.32;;;12.70;99.90;;;;;;5070221;28;20479;-49
2022/05/29 08:36:06;;;;;;;10.68;4.00;;;12.80;99.90;;;;;;5067532;28;20020;-48
2022/05/29 08:38:32;;;;;;;13.50;4.55;;;12.80;99.90;;;;;;5041423;28;20024;-47
2022/05/29 08:41:05;;;;;;;9.82;4.20;;;12.80;99.90;;;;;;5065208;28;20032;-48
2022/05/29 08:43:38;;;;;;;9.48;3.97;;;12.90;99.90;;;;;;5058952;28;20020;-47
2022/05/29 08:46:17;;;;;;;13.60;4.05;;;13.00;99.90;;;;;;5063662;28;20032;-47
2022/05/29 08:48:44;;;;;;;14.55;4.53;;;13.10;99.90;;;;;;5062066;28;20437;-49
2022/05/29 08:51:30;;;;;;;10.27;4.45;;;13.30;99.90;;;;;;5067663;28;20475;-49
2022/05/29 08:54:16;;;;;;;10.63;4.75;;;13.40;99.90;;;;;;5064710;28;20082;-47
2022/05/29 08:57:12;;;;;;;11.60;4.72;;;13.50;99.90;;;;;;5066364;28;20020;-50
2022/05/29 09:00:04;;;;;;;14.68;3.88;;;13.50;99.90;;;;;;5061291;28;20024;-47
2022/05/29 09:02:41;;;;;;;11.40;4.75;;;13.50;99.90;;;;;;5060435;28;20036;-49
2022/05/29 09:05:20;;;;;;;12.85;4.68;;;13.60;99.90;;;;;;5063721;28;20067;-46
2022/05/29 09:07:49;;;;;;;7.35;4.00;;;13.60;99.90;;;;;;5068685;28;20055;-48
2022/05/29 09:10:23;;;;;;;12.13;4.78;;;13.60;99.90;;;;;;5051879;28;20013;-47
2022/05/29 09:13:00;;;;;;;9.05;3.03;;;13.80;99.90;;;;;;5066645;28;20021;-47
2022/05/29 09:15:41;;;;;;;12.07;3.60;;;13.90;99.90;;;;;;5057619;28;20028;-47
2022/05/29 09:18:15;;;;;;;12.18;3.58;;;14.10;99.90;;;;;;5064879;28;20063;-48
2022/05/29 09:20:49;;;;;;;9.02;2.65;;;14.40;99.90;;;;;;5068996;28;20066;-48
2022/05/29 09:23:20;;;;;;;7.68;2.63;;;14.70;99.90;;;;;;5054049;28;20059;-47
2022/05/29 09:25:46;;;;;;;10.38;3.53;;;14.80;99.90;;;;;;5068383;28;20064;-47
2022/05/29 09:28:18;;;;;;;7.20;2.80;;;14.60;99.90;;;;;;5064216;28;20059;-47
2022/05/29 09:30:45;;;;;;;8.43;2.28;;;14.50;99.90;;;;;;5067244;28;20036;-45
2022/05/29 09:33:30;;;;;;;11.82;3.15;;;14.30;99.90;;;;;;5069279;28;20134;-47
2022/05/29 09:36:13;;;;;;;10.45;2.95;;;14.20;99.90;;;;;;5065784;28;20028;-48
2022/05/29 09:38:44;;;;;;;7.15;3.08;;;14.20;99.90;;;;;;5061001;28;20032;-48
2022/05/29 09:41:26;;;;;;;10.88;3.60;;;14.40;99.90;;;;;;5063556;28;20013;-48
2022/05/29 09:44:19;;;;;;;12.82;3.55;;;14.40;99.90;;;;;;5051797;28;20094;-48
2022/05/29 09:46:47;;;;;;;8.10;2.50;;;14.40;99.90;;;;;;5061972;28;20028;-47
2022/05/29 09:52:28;;;;;;;7.38;3.25;;;14.30;99.90;;;;;;5040158;28;20031;-48
2022/05/29 09:54:57;;;;;;;7.50;2.70;;;14.10;99.90;;;;;;5068524;28;20020;-49
2022/05/29 09:57:27;;;;;;;6.78;1.77;;;13.90;99.90;;;;;;5065133;28;20097;-47
2022/05/29 10:00:15;;;;;;;9.65;2.53;;;13.60;99.90;;;;;;5049555;28;20020;-47
2022/05/29 10:02:45;;;;;;;6.63;2.50;;;13.50;99.90;;;;;;5064115;28;20016;-46
2022/05/29 10:05:35;;;;;;;7.65;2.00;;;13.30;99.90;;;;;;5062323;28;20511;-47
2022/05/29 10:08:18;;;;;;;9.02;2.80;;;13.20;99.90;;;;;;5064443;28;20437;-48
2022/05/29 10:10:43;;;;;;;5.45;2.70;;;13.10;99.90;;;;;;5046340;28;20087;-47
2022/05/29 10:13:09;;;;;;;13.10;2.95;;;12.90;99.90;;;;;;5066212;28;20028;-49
2022/05/29 10:15:40;;;;;;;8.80;2.60;;;13.00;99.90;;;;;;5069505;28;20024;-47
2022/05/29 10:18:32;;;;;;;9.50;2.60;;;13.00;99.90;;;;;;5066275;28;20115;-47
2022/05/29 10:21:10;;;;;;;4.47;2.03;;;13.00;99.90;;;;;;5068233;28;20033;-47
2022/05/29 10:23:38;;;;;;;5.82;2.17;;;13.10;99.90;;;;;;5065174;28;20028;-48
2022/05/29 10:26:29;;;;;;;10.27;3.20;;;13.20;99.90;;;;;;5067359;28;20055;-47
2022/05/29 10:28:55;;;;;;;7.20;2.60;;;13.10;99.90;;;;;;5063479;28;20089;-47
2022/05/29 10:31:28;;;;;;;7.20;2.33;;;13.10;99.90;;;;;;5066715;28;20044;-48
2022/05/29 10:34:10;;;;;;;4.03;2.40;;;13.10;99.90;;;;;;5068771;28;20024;-45
2022/05/29 10:36:37;;;;;;;8.40;2.72;;;13.30;99.90;;;;;;5067436;28;20151;-46
2022/05/29 10:39:07;;;;;;;6.18;2.65;;;13.30;99.90;;;;;;5067531;28;20024;-47
2022/05/29 10:41:36;;;;;;;10.05;2.58;;;13.20;99.90;;;;;;5064895;28;20037;-49
2022/05/29 10:44:01;;;;;;;3.58;1.75;;;13.20;99.90;;;;;;5067713;28;20025;-48
2022/05/29 10:46:44;;;;;;;8.57;2.53;;;13.30;99.90;;;;;;5062455;28;20027;-47
2022/05/29 10:49:10;;;;;;;9.10;3.13;;;13.30;99.90;;;;;;5069027;28;20021;-47
2022/05/29 10:51:35;;;;;;;9.35;2.70;;;13.40;99.90;;;;;;5065064;28;20032;-47
2022/05/29 10:54:09;;;;;;;3.20;1.95;;;13.40;99.90;;;;;;5068228;28;20486;-47
2022/05/29 10:57:13;;;;;;;5.65;2.67;;;13.50;99.90;;;;;;5064787;28;20025;-47
2022/05/29 11:00:02;;;;;;;8.73;2.45;;;13.60;99.90;;;;;;5059472;28;20025;-47
2022/05/29 11:03:23;;;;;;;8.27;2.40;;;13.60;99.90;;;;;;5056527;28;20024;-48
2022/05/29 11:06:36;;;;;;;8.35;3.25;;;13.60;99.90;;;;;;5058891;28;20021;-48
2022/05/29 11:09:26;;;;;;;6.53;2.13;;;13.60;99.90;;;;;;5040109;28;20055;-48
2022/05/29 11:12:06;;;;;;;5.45;2.53;;;13.70;99.90;;;;;;5062670;28;20021;-47
2022/05/29 11:14:46;;;;;;;5.05;2.30;;;13.60;99.90;;;;;;5068221;28;20020;-49
2022/05/29 11:17:23;;;;;;;8.85;2.92;;;13.50;99.90;;;;;;5065859;28;20536;-48
2022/05/29 11:20:14;;;;;;;7.57;2.42;;;13.50;99.90;;;;;;5060773;28;20111;-48
2022/05/29 11:22:40;;;;;;;5.95;1.75;;;13.40;99.90;;;;;;5057683;28;20013;-47
2022/05/29 11:25:27;;;;;;;6.85;2.15;;;13.30;99.90;;;;;;5048774;28;20085;-49
2022/05/29 11:27:56;;;;;;;4.40;2.33;;;13.20;99.90;;;;;;5063363;28;20013;-50
2022/05/29 11:30:46;;;;;;;7.97;2.42;;;13.10;99.90;;;;;;5069420;28;20487;-50
2022/05/29 11:33:40;;;;;;;6.45;2.28;;;13.10;99.90;;;;;;5071950;28;20368;-48
2022/05/29 11:36:30;;;;;;;7.55;2.50;;;13.10;99.90;;;;;;5067957;28;20352;-47
2022/05/29 11:39:22;;;;;;;4.43;1.67;;;13.10;99.90;;;;;;5071826;28;20078;-49
2022/05/29 11:42:02;;;;;;;5.18;1.77;;;13.10;99.90;;;;;;5063186;28;20020;-51
2022/05/29 11:44:51;;;;;;;2.50;1.65;;;13.20;99.90;;;;;;5055096;28;20530;-48
2022/05/29 11:53:22;;;;;;;7.63;2.55;;;13.20;99.90;;;;;;5063772;28;20059;-47
2022/05/29 11:55:49;;;;;;;6.60;2.22;;;13.20;99.90;;;;;;5045705;28;20030;-50
2022/05/29 11:58:29;;;;;;;9.93;2.72;;;13.10;99.90;;;;;;5053208;28;20033;-47
2022/05/29 12:00:58;;;;;;;5.50;2.53;;;13.00;99.90;;;;;;5063238;28;20462;-48
2022/05/29 12:03:43;;;;;;;4.70;2.28;;;13.00;99.90;;;;;;5063258;28;20031;-51
2022/05/29 12:06:38;;;;;;;5.72;2.40;;;12.90;99.90;;;;;;5066008;28;20025;-49
2022/05/29 12:09:09;;;;;;;7.00;2.35;;;12.90;99.90;;;;;;5069756;28;20025;-47
2022/05/29 12:12:10;;;;;;;6.88;2.15;;;12.90;99.90;;;;;;5066078;28;20031;-52
2022/05/29 12:14:47;;;;;;;9.65;1.90;;;13.00;99.90;;;;;;5061362;28;20085;-48
2022/05/29 12:17:12;;;;;;;5.85;2.50;;;13.00;99.90;;;;;;5068709;28;20037;-50
2022/05/29 12:19:45;;;;;;;6.38;2.60;;;13.10;99.90;;;;;;5069800;28;20466;-50
2022/05/29 12:22:13;;;;;;;4.80;1.92;;;13.20;99.90;;;;;;5050409;28;20017;-46
2022/05/29 12:24:44;;;;;;;4.10;2.13;;;13.20;99.90;;;;;;5068488;28;20060;-47
2022/05/29 12:27:24;;;;;;;6.68;1.98;;;13.20;99.90;;;;;;5068471;28;20025;-50
2022/05/29 12:30:16;;;;;;;8.43;2.47;;;13.20;99.90;;;;;;5049962;28;20116;-50
2022/05/29 12:32:42;;;;;;;6.28;2.03;;;13.20;99.90;;;;;;5070950;28;20540;-48
2022/05/29 12:35:28;;;;;;;13.68;3.92;;;13.20;99.90;;;;;;5067942;28;20033;-48
2022/05/29 12:38:26;;;;;;;11.98;2.40;;;13.20;99.90;;;;;;5051467;28;20036;-50
2022/05/29 12:41:13;;;;;;;8.40;2.67;;;13.30;99.90;;;;;;5047021;28;20052;-48
2022/05/29 12:43:58;;;;;;;5.82;2.55;;;13.40;99.90;;;;;;5061802;28;20039;-49
2022/05/29 12:46:36;;;;;;;6.53;2.45;;;13.50;99.90;;;;;;5059680;28;20127;-52
2022/05/29 12:49:22;;;;;;;8.57;2.10;;;13.60;99.90;;;;;;5052602;28;20230;-48
2022/05/29 12:52:17;;;;;;;6.07;2.30;;;13.60;99.90;;;;;;5066867;28;20028;-52
2022/05/29 12:55:10;;;;;;;8.52;2.45;;;13.50;99.90;;;;;;5062542;28;20490;-51
2022/05/29 12:57:39;;;;;;;8.20;2.15;;;13.40;99.90;;;;;;5060314;28;20036;-47
2022/05/29 13:00:35;;;;;;;3.70;2.28;;;13.50;99.90;;;;;;5068437;28;20587;-46
2022/05/29 13:03:13;;;;;;;5.85;1.50;;;13.50;99.90;;;;;;5045336;28;20021;-48
2022/05/29 13:06:03;;;;;;;6.63;2.15;;;13.50;99.90;;;;;;5057593;28;20025;-48
2022/05/29 13:09:03;;;;;;;4.30;2.80;;;13.50;99.90;;;;;;5058378;28;20023;-47
2022/05/29 13:11:33;;;;;;;9.63;2.10;;;13.70;99.90;;;;;;5057666;28;20107;-47
2022/05/29 13:14:03;;;;;;;7.18;1.88;;;13.70;99.90;;;;;;5067264;28;20044;-47
2022/05/29 13:16:35;;;;;;;7.47;2.10;;;13.80;99.90;;;;;;5070494;28;20016;-47
2022/05/29 13:19:18;;;;;;;3.95;1.95;;;13.80;99.90;;;;;;5047454;28;20024;-48
2022/05/29 13:21:52;;;;;;;7.00;2.25;;;13.80;99.90;;;;;;5052052;28;20032;-51
2022/05/29 13:24:18;;;;;;;6.28;1.98;;;13.90;99.90;;;;;;5060134;28;20482;-48
2022/05/29 13:26:44;;;;;;;4.90;1.73;;;13.90;99.90;;;;;;5036082;28;20024;-47
2022/05/29 13:29:39;;;;;;;5.35;2.17;;;13.90;99.90;;;;;;5062245;28;20035;-48
2022/05/29 13:32:13;;;;;;;6.22;2.13;;;13.80;99.90;;;;;;5067303;28;20555;-51
2022/05/29 13:34:50;;;;;;;6.00;1.65;;;13.70;99.90;;;;;;5048685;28;20024;-50
2022/05/29 13:37:44;;;;;;;6.03;2.33;;;13.60;99.90;;;;;;5054086;28;20048;-50
2022/05/29 13:40:21;;;;;;;6.18;1.90;;;13.80;99.90;;;;;;5061528;28;20055;-48
2022/05/29 13:42:53;;;;;;;7.22;2.28;;;13.80;99.90;;;;;;5067454;28;20395;-50
2022/05/29 13:45:19;;;;;;;4.00;1.98;;;13.80;99.90;;;;;;5054810;28;20021;-48
2022/05/29 13:47:47;;;;;;;10.63;2.55;;;13.90;99.90;;;;;;5049109;28;20393;-52